Kezdőlap
METAR-TAF:

METAR-TAF

Repülőterek :

Bad Vöslau, Ausztria

földrajzi szélesség: 47-57-52N, földrajzi hosszúság: 016-15-34E, magasság: 233 m

Jelenlegi meteorológiai megfigyelések

A jelentés 8 órával és 49 perccel ezelõtt készült, 18:00 UTC
Nyugat-délnyugati szél 5 kt
Hőmérséklet 28°C
Páratartalom 37%
Légköri nyomás

METAR: LOAV 201800Z 24005KT 35KM FEW050CU SCT100AC 28/12

Idő: 04:49 (02:49 UTC)

Előrejelzés

A jelentés 15 órával és 24 perccel ezelõtt készült, 11:25 UTC
Az előrejelzés 20-én 12 óra UTC és 20-én 21 óra UTC között érvényes
Különbözõ irányokból fújó szél 2 kt
Látótávolság 10 km, vagy több
Szórványos felhőzet 6000 lábon
20-én 12 óra UTC és 20-én 17 óra UTC között ideiglenes
Észak-északnyugati szél 10 kt
Kevés felhő 6000 lábon, Tornyos gomolyfelhő.

TAF: LOAV 201125Z 2012/2021 VRB02KT 9999 SCT060 TEMPO 2012/2017 33010KT FEW060TCU

Meteorológiai megfigyelések és előrejelzések több, mint 4000 repülőtéren (METAR és TAF jelentéseket).

A térképen piros és sárga pontok jelzik az elérhető meteorológiai állomásokat.

Mozgassa az egeret a pont fölött, hogy megjelenjen az állomás neve.

Azután kattintson az időjárási megfigyelések és előrejelzések megtekintéséhez.

A térkép megváltoztatása: kattintson a fekete keresztel jelölt zöld gombra ráközelítéshez, a vonallal jelölt zöld gombra távolításhoz, vagy a zöld nyilakra a szomszédos térképek eléréséhez.


METAR-TAF: